createdAt,value
2018-12-04T00:02:37.141Z,83.85
2018-12-04T00:06:41.987Z,83.83
2018-12-04T00:10:46.774Z,83.76
2018-12-04T00:14:51.640Z,83.71
2018-12-04T00:18:56.485Z,83.76
2018-12-04T00:23:01.360Z,83.84
2018-12-04T00:27:06.246Z,83.84
2018-12-04T00:31:11.052Z,83.76
2018-12-04T00:35:15.893Z,83.83
2018-12-04T00:39:21.101Z,83.74
2018-12-04T00:43:25.893Z,83.67
2018-12-04T00:47:30.724Z,83.70
2018-12-04T00:51:35.646Z,83.82
2018-12-04T00:55:39.607Z,84.18
2018-12-04T00:59:44.417Z,84.49
2018-12-04T01:03:49.296Z,84.92
2018-12-04T01:07:54.081Z,85.19
2018-12-04T01:11:58.974Z,85.19
2018-12-04T01:16:03.848Z,85.05
2018-12-04T01:20:08.604Z,85.48
2018-12-04T01:24:13.471Z,85.22
2018-12-04T01:28:18.315Z,86.00
2018-12-04T01:32:23.104Z,86.06
2018-12-04T01:36:27.976Z,86.67
2018-12-04T01:40:32.811Z,86.80
2018-12-04T01:44:37.668Z,86.71
2018-12-04T01:48:42.608Z,86.46
2018-12-04T01:52:47.521Z,86.77
2018-12-04T01:56:52.385Z,86.66
2018-12-04T02:00:57.198Z,86.79
2018-12-04T02:05:02.140Z,86.72
2018-12-04T02:09:07.722Z,86.75
2018-12-04T02:13:12.652Z,86.68
2018-12-04T02:17:17.541Z,86.65
2018-12-04T02:22:01.632Z,86.55
2018-12-04T02:26:06.540Z,86.52
2018-12-04T02:30:11.431Z,86.58
2018-12-04T02:34:16.303Z,86.45
2018-12-04T02:38:21.180Z,86.43
2018-12-04T02:42:26.084Z,86.42
2018-12-04T02:46:30.939Z,87.03
2018-12-04T02:50:35.820Z,87.53
2018-12-04T02:54:40.638Z,88.33
2018-12-04T02:58:45.478Z,88.42
2018-12-04T03:02:50.351Z,88.48
2018-12-04T03:06:55.188Z,87.66
2018-12-04T03:11:18.863Z,86.66
2018-12-04T03:15:23.810Z,85.62
2018-12-04T03:19:28.709Z,84.55
2018-12-04T03:23:33.537Z,83.72
2018-12-04T03:27:38.432Z,83.19
2018-12-04T03:31:43.278Z,82.55
2018-12-04T03:35:55.471Z,82.00
2018-12-04T03:40:00.337Z,81.36
2018-12-04T03:44:05.240Z,81.26
2018-12-04T03:48:10.088Z,80.79
2018-12-04T03:52:15.009Z,80.42
2018-12-04T03:56:19.842Z,80.17
2018-12-04T04:00:24.693Z,79.97
2018-12-04T04:04:29.606Z,79.80
2018-12-04T04:08:34.474Z,79.81
2018-12-04T04:12:39.353Z,79.67
2018-12-04T04:16:44.198Z,79.55
2018-12-04T04:20:49.074Z,79.35
2018-12-04T04:24:53.932Z,78.86
2018-12-04T04:28:59.198Z,78.51
2018-12-04T04:33:04.091Z,78.47
2018-12-04T04:37:09.280Z,78.35
2018-12-04T04:41:14.151Z,78.17
2018-12-04T04:45:19.042Z,77.98
2018-12-04T04:49:24.089Z,77.72
2018-12-04T04:53:28.901Z,77.82
2018-12-04T04:57:33.783Z,77.77
2018-12-04T05:01:38.808Z,77.71
2018-12-04T05:05:43.597Z,77.56
2018-12-04T05:09:48.509Z,77.42
2018-12-04T05:13:53.535Z,77.40
2018-12-04T05:18:17.247Z,77.32
2018-12-04T05:22:22.137Z,77.23
2018-12-04T05:26:27.030Z,77.21
2018-12-04T05:30:32.252Z,77.19
2018-12-04T05:34:37.151Z,77.10
2018-12-04T05:38:41.993Z,76.91
2018-12-04T05:42:46.863Z,76.98
2018-12-04T05:47:10.613Z,76.85
2018-12-04T05:51:15.885Z,76.87
2018-12-04T05:55:20.721Z,76.69
2018-12-04T05:59:25.595Z,76.73
2018-12-04T06:03:30.427Z,76.52
2018-12-04T06:07:35.313Z,76.52
2018-12-04T06:11:40.108Z,76.54
2018-12-04T06:15:45.029Z,76.69
2018-12-04T06:19:50.779Z,76.72
2018-12-04T06:23:55.668Z,76.79
2018-12-04T06:28:00.482Z,76.73
2018-12-04T06:32:05.378Z,76.90
2018-12-04T06:36:10.218Z,76.89
2018-12-04T06:40:15.108Z,76.92
2018-12-04T06:44:19.982Z,76.98
2018-12-04T06:48:24.867Z,77.07
2018-12-04T06:52:29.725Z,77.07
2018-12-04T06:56:34.905Z,77.12
2018-12-04T07:00:39.748Z,77.30
2018-12-04T07:04:44.665Z,77.28
2018-12-04T07:08:50.114Z,77.21
2018-12-04T07:12:54.984Z,77.28
2018-12-04T07:16:59.795Z,77.22
2018-12-04T07:21:04.944Z,77.08
2018-12-04T07:25:10.300Z,77.00
2018-12-04T07:29:15.172Z,76.89
2018-12-04T07:33:20.091Z,76.72
2018-12-04T07:37:24.941Z,76.56
2018-12-04T07:41:29.831Z,76.36
2018-12-04T07:45:34.706Z,75.98
2018-12-04T07:49:39.546Z,75.76
2018-12-04T07:53:44.489Z,75.70
2018-12-04T07:57:49.636Z,75.37
2018-12-04T08:01:54.457Z,75.41
2018-12-04T08:10:11.688Z,74.98
2018-12-04T08:14:16.500Z,74.90
2018-12-04T08:18:21.393Z,74.52
2018-12-04T08:22:26.210Z,74.30
2018-12-04T08:26:31.339Z,74.18
2018-12-04T08:30:36.268Z,73.99
2018-12-04T08:38:56.670Z,73.53
2018-12-04T08:47:12.025Z,73.48
2018-12-04T08:51:16.891Z,73.07
2018-12-04T08:55:21.783Z,73.03
2018-12-04T08:59:26.636Z,72.18
2018-12-04T09:03:31.564Z,72.32
2018-12-04T09:07:36.752Z,71.76
2018-12-04T09:11:41.748Z,71.72
2018-12-04T09:15:46.686Z,71.87
2018-12-04T09:19:51.578Z,71.61
2018-12-04T09:23:56.379Z,71.28
2018-12-04T09:28:01.255Z,71.18
2018-12-04T09:32:06.184Z,70.88
2018-12-04T09:36:11.047Z,70.11
2018-12-04T09:40:16.687Z,70.25
2018-12-04T09:44:21.973Z,69.81
2018-12-04T09:48:26.794Z,70.14
2018-12-04T09:52:31.652Z,69.95
2018-12-04T09:56:36.495Z,69.12
2018-12-04T10:00:41.459Z,68.85
2018-12-04T10:04:46.383Z,68.85
2018-12-04T10:08:51.149Z,68.66
2018-12-04T10:12:56.057Z,67.65
2018-12-04T10:17:20.251Z,67.84
2018-12-04T10:21:25.096Z,67.58
2018-12-04T10:25:29.992Z,68.09
2018-12-04T10:29:34.810Z,68.11
2018-12-04T10:33:40.101Z,67.79
2018-12-04T10:38:03.839Z,66.98
2018-12-04T10:42:08.642Z,66.98
2018-12-04T10:46:13.501Z,67.25
2018-12-04T10:50:37.228Z,66.75
2018-12-04T10:55:21.904Z,66.75
2018-12-04T10:59:26.711Z,67.51
2018-12-04T11:03:50.201Z,67.43
2018-12-04T11:07:55.079Z,67.31
2018-12-04T11:11:59.921Z,67.38
2018-12-04T11:16:04.777Z,67.53
2018-12-04T11:20:11.100Z,67.38
2018-12-04T11:28:26.355Z,67.48
2018-12-04T11:32:31.233Z,67.56
2018-12-04T11:36:36.064Z,67.35
2018-12-04T11:40:41.636Z,67.00
2018-12-04T11:45:07.486Z,66.53
2018-12-04T11:49:12.400Z,66.53
2018-12-04T11:53:17.429Z,66.70
2018-12-04T11:57:41.135Z,65.97
2018-12-04T12:01:46.021Z,65.97
2018-12-04T12:06:09.781Z,66.23
2018-12-04T12:10:33.516Z,65.89
2018-12-04T12:14:38.335Z,65.89
2018-12-04T12:18:43.139Z,65.64
2018-12-04T12:23:06.857Z,65.29
2018-12-04T12:27:11.695Z,65.29
2018-12-04T12:31:16.563Z,64.95
2018-12-04T12:35:21.409Z,64.84
2018-12-04T12:39:26.227Z,64.45
2018-12-04T12:43:49.927Z,64.66
2018-12-04T12:47:55.101Z,64.66
2018-12-04T12:56:31.110Z,66.17
2018-12-04T13:00:54.834Z,67.26
2018-12-04T13:04:59.689Z,68.49
2018-12-04T13:13:36.938Z,71.02
2018-12-04T13:17:42.150Z,72.79
2018-12-04T13:21:47.065Z,73.12
2018-12-04T13:25:51.956Z,74.10
2018-12-04T13:29:56.811Z,74.23
2018-12-04T13:34:01.719Z,74.59
2018-12-04T13:38:06.514Z,75.49
2018-12-04T13:42:11.384Z,74.80
2018-12-04T13:46:17.098Z,74.34
2018-12-04T13:50:21.953Z,74.10
2018-12-04T13:54:26.830Z,74.07
2018-12-04T13:58:31.673Z,73.99
2018-12-04T14:02:36.509Z,74.06
2018-12-04T14:06:41.324Z,74.57
2018-12-04T14:10:46.170Z,74.88
2018-12-04T14:14:51.069Z,75.23
2018-12-04T14:18:55.933Z,75.36
2018-12-04T14:23:00.813Z,75.77
2018-12-04T14:27:05.681Z,76.35
2018-12-04T14:31:10.574Z,76.13
2018-12-04T14:35:15.410Z,75.91
2018-12-04T14:39:20.278Z,76.69
2018-12-04T14:43:25.458Z,75.40
2018-12-04T14:47:30.313Z,74.87
2018-12-04T14:51:35.169Z,74.67
2018-12-04T14:55:39.992Z,74.71
2018-12-04T14:59:44.868Z,74.88
2018-12-04T15:03:49.724Z,74.21
2018-12-04T15:07:54.615Z,73.97
2018-12-04T15:11:59.454Z,73.88
2018-12-04T15:16:04.396Z,74.07
2018-12-04T15:20:10.012Z,73.69
2018-12-04T15:24:14.936Z,72.26
2018-12-04T15:28:19.853Z,72.73
2018-12-04T15:32:24.750Z,71.71
2018-12-04T15:36:29.576Z,71.32
2018-12-04T15:40:34.552Z,71.77
2018-12-04T15:44:39.529Z,71.46
2018-12-04T15:48:44.477Z,70.35
2018-12-04T15:52:49.314Z,70.91
2018-12-04T15:56:54.544Z,70.50
2018-12-04T16:00:59.943Z,70.33
2018-12-04T16:05:06.924Z,69.80
2018-12-04T16:09:11.803Z,70.40
2018-12-04T16:13:16.840Z,70.30
2018-12-04T16:17:21.685Z,70.36
2018-12-04T16:21:26.946Z,70.18
2018-12-04T16:25:31.814Z,70.19
2018-12-04T16:29:36.647Z,70.40
2018-12-04T16:33:41.594Z,70.82
2018-12-04T16:37:46.509Z,71.24
2018-12-04T16:41:51.514Z,71.17
2018-12-04T16:45:56.423Z,70.46
2018-12-04T16:50:01.350Z,69.55
2018-12-04T16:54:06.470Z,69.79
2018-12-04T16:58:11.389Z,69.60
2018-12-04T17:02:18.444Z,70.07
2018-12-04T17:06:23.295Z,70.42
2018-12-04T17:10:28.146Z,70.59
2018-12-04T17:14:32.996Z,71.11
2018-12-04T17:18:38.084Z,71.36
2018-12-04T17:22:43.722Z,71.23
2018-12-04T17:31:21.714Z,70.39
2018-12-04T17:35:26.509Z,70.60
2018-12-04T17:39:31.356Z,70.87
2018-12-04T17:43:36.346Z,71.01
2018-12-04T17:47:41.239Z,70.84
2018-12-04T17:51:46.106Z,70.69
2018-12-04T17:55:51.002Z,70.62
2018-12-04T17:59:55.989Z,69.54
2018-12-04T18:08:11.695Z,69.69
2018-12-04T18:12:16.543Z,69.15
2018-12-04T18:16:21.370Z,69.18
2018-12-04T18:20:26.243Z,69.01
2018-12-04T18:24:31.522Z,68.52
2018-12-04T18:28:36.804Z,68.06
2018-12-04T18:32:42.055Z,68.26
2018-12-04T18:36:47.282Z,68.57
2018-12-04T18:40:52.128Z,68.13
2018-12-04T18:44:57.000Z,68.48
2018-12-04T18:53:12.362Z,68.60
2018-12-04T18:57:17.197Z,68.93
2018-12-04T19:01:21.976Z,69.18
2018-12-04T19:05:26.861Z,69.53
2018-12-04T19:09:31.897Z,69.87
2018-12-04T19:13:36.842Z,70.07
2018-12-04T19:26:41.415Z,69.18
2018-12-04T19:30:46.291Z,69.41
2018-12-04T19:34:51.224Z,69.45
2018-12-04T19:38:56.203Z,69.39
2018-12-04T19:43:01.082Z,69.21
2018-12-04T19:47:06.098Z,69.10
2018-12-04T19:51:11.078Z,68.61
2018-12-04T19:55:15.979Z,68.23
2018-12-04T19:59:20.967Z,67.97
2018-12-04T20:03:25.888Z,67.74
2018-12-04T20:07:31.264Z,67.50
2018-12-04T20:11:36.977Z,67.39
2018-12-04T20:15:41.960Z,68.05
2018-12-04T20:19:46.971Z,68.25
2018-12-04T20:23:52.012Z,67.93
2018-12-04T20:27:56.932Z,68.23
2018-12-04T20:32:01.899Z,68.51
2018-12-04T20:36:06.868Z,68.86
2018-12-04T20:40:11.775Z,69.20
2018-12-04T20:44:16.984Z,69.43
2018-12-04T20:48:22.152Z,69.63
2018-12-04T20:52:27.017Z,69.76
2018-12-04T20:56:31.866Z,69.81
2018-12-04T21:00:36.727Z,69.82
2018-12-04T21:08:54.040Z,69.92
2018-12-04T21:12:58.908Z,70.05
2018-12-04T21:17:03.763Z,70.12
2018-12-04T21:21:08.609Z,70.05
2018-12-04T21:25:13.453Z,71.05
2018-12-04T21:29:36.912Z,70.67
2018-12-04T21:34:00.397Z,70.20
2018-12-04T21:38:35.818Z,70.33
2018-12-04T21:42:59.324Z,70.24
2018-12-04T21:47:22.815Z,70.32
2018-12-04T21:51:27.652Z,70.33
2018-12-04T21:55:32.578Z,70.30
2018-12-04T21:59:37.426Z,70.34
2018-12-04T22:03:42.285Z,70.19
2018-12-04T22:07:47.221Z,70.10
2018-12-04T22:11:52.329Z,70.25
2018-12-04T22:15:57.193Z,69.93
2018-12-04T22:20:02.057Z,69.73
2018-12-04T22:24:06.889Z,69.75
2018-12-04T22:28:11.748Z,69.77
2018-12-04T22:32:16.939Z,69.31
2018-12-04T22:36:23.337Z,69.35
2018-12-04T22:40:28.180Z,69.16
2018-12-04T22:44:33.042Z,68.96
2018-12-04T22:48:37.812Z,68.81
2018-12-04T22:52:42.716Z,68.82
2018-12-04T22:56:47.967Z,68.85
2018-12-04T23:00:52.783Z,68.65
2018-12-04T23:04:57.703Z,68.55
2018-12-04T23:13:14.315Z,68.67
2018-12-04T23:17:19.179Z,68.67
2018-12-04T23:21:24.011Z,68.91
2018-12-04T23:25:28.862Z,69.03
2018-12-04T23:29:33.698Z,69.15
2018-12-04T23:33:38.863Z,69.18
2018-12-04T23:37:43.747Z,69.18
2018-12-04T23:41:48.603Z,69.46
2018-12-04T23:45:53.479Z,69.66
2018-12-04T23:49:58.288Z,69.68
2018-12-04T23:54:03.504Z,69.76
2018-12-04T23:58:08.328Z,69.82
